createdAt,value
2018-07-14T00:00:08.197Z,0
2018-07-14T00:01:18.273Z,0
2018-07-14T00:02:28.346Z,0
2018-07-14T00:03:38.225Z,0
2018-07-14T00:04:48.310Z,0
2018-07-14T00:05:58.440Z,0
2018-07-14T00:07:08.270Z,0
2018-07-14T00:08:18.346Z,0
2018-07-14T00:09:28.415Z,0
2018-07-14T00:10:38.479Z,0
2018-07-14T00:11:48.551Z,0
2018-07-14T00:12:58.639Z,0
2018-07-14T00:14:08.457Z,0
2018-07-14T00:15:18.564Z,0
2018-07-14T00:16:28.664Z,0
2018-07-14T00:17:38.727Z,0
2018-07-14T00:18:48.845Z,0
2018-07-14T00:19:58.661Z,0
2018-07-14T00:21:08.269Z,0
2018-07-14T00:22:18.089Z,0
2018-07-14T00:23:27.903Z,0
2018-07-14T00:24:38.108Z,0
2018-07-14T00:25:48.176Z,0
2018-07-14T00:26:58.012Z,0
2018-07-14T00:28:07.787Z,0
2018-07-14T00:29:17.841Z,0
2018-07-14T00:30:27.932Z,0
2018-07-14T00:31:37.743Z,0
2018-07-14T00:32:47.823Z,0
2018-07-14T00:33:57.904Z,0
2018-07-14T00:35:07.712Z,0
2018-07-14T00:36:17.796Z,0
2018-07-14T00:37:27.886Z,0
2018-07-14T00:38:38.005Z,0
2018-07-14T00:39:48.100Z,0
2018-07-14T00:40:57.905Z,0
2018-07-14T00:42:07.976Z,0
2018-07-14T00:43:18.053Z,0
2018-07-14T00:44:28.163Z,0
2018-07-14T00:45:38.219Z,0
2018-07-14T00:46:48.292Z,0
2018-07-14T00:47:58.387Z,0
2018-07-14T00:49:08.200Z,0
2018-07-14T00:50:18.291Z,0
2018-07-14T00:51:28.372Z,0
2018-07-14T00:52:38.442Z,0
2018-07-14T00:53:48.523Z,0
2018-07-14T00:54:58.056Z,0
2018-07-14T00:56:07.875Z,0
2018-07-14T00:57:17.949Z,0
2018-07-14T00:58:28.059Z,0
2018-07-14T00:59:37.865Z,0
2018-07-14T01:00:47.677Z,0
2018-07-14T01:01:57.815Z,0
2018-07-14T01:03:07.899Z,0
2018-07-14T01:04:17.713Z,0
2018-07-14T01:05:27.510Z,0
2018-07-14T01:06:37.320Z,0
2018-07-14T01:07:47.132Z,0
2018-07-14T01:08:56.920Z,0
2018-07-14T01:10:06.742Z,0
2018-07-14T01:11:16.549Z,0
2018-07-14T01:12:26.633Z,0
2018-07-14T01:13:36.445Z,0
2018-07-14T01:14:46.509Z,0
2018-07-14T01:15:56.577Z,0
2018-07-14T01:17:06.647Z,0
2018-07-14T01:18:16.719Z,0
2018-07-14T01:19:26.325Z,0
2018-07-14T01:20:36.116Z,0
2018-07-14T01:21:46.186Z,0
2018-07-14T01:22:56.263Z,0
2018-07-14T01:24:06.347Z,0
2018-07-14T01:25:16.145Z,0
2018-07-14T01:26:26.259Z,0
2018-07-14T01:27:36.052Z,0
2018-07-14T01:28:45.858Z,0
2018-07-14T01:29:55.919Z,0
2018-07-14T01:31:05.978Z,0
2018-07-14T01:32:15.804Z,0
2018-07-14T01:33:25.622Z,0
2018-07-14T01:34:35.687Z,0
2018-07-14T01:35:45.755Z,0
2018-07-14T01:36:55.591Z,0
2018-07-14T01:38:05.662Z,0
2018-07-14T01:39:15.487Z,0
2018-07-14T01:40:25.552Z,0
2018-07-14T01:41:35.640Z,0
2018-07-14T01:42:45.715Z,0
2018-07-14T01:43:55.518Z,0
2018-07-14T01:45:05.338Z,0
2018-07-14T01:46:14.894Z,0
2018-07-14T01:47:24.720Z,0
2018-07-14T01:48:34.836Z,0
2018-07-14T01:49:44.894Z,0
2018-07-14T01:50:54.957Z,0
2018-07-14T01:52:05.034Z,0
2018-07-14T01:53:14.587Z,0
2018-07-14T01:54:24.410Z,0
2018-07-14T01:55:34.482Z,0
2018-07-14T01:56:44.562Z,0
2018-07-14T01:57:54.631Z,0
2018-07-14T01:59:03.908Z,0
2018-07-14T02:00:13.205Z,0
2018-07-14T02:01:23.287Z,0
2018-07-14T02:02:33.079Z,0
2018-07-14T02:03:43.151Z,0
2018-07-14T02:04:53.222Z,0
2018-07-14T02:06:03.283Z,0
2018-07-14T02:07:13.356Z,0
2018-07-14T02:08:23.427Z,0
2018-07-14T02:09:33.241Z,0
2018-07-14T02:10:43.068Z,0
2018-07-14T02:11:53.161Z,0
2018-07-14T02:13:03.235Z,0
2018-07-14T02:14:13.054Z,0
2018-07-14T02:15:22.863Z,0
2018-07-14T02:16:32.157Z,0
2018-07-14T02:17:42.231Z,0
2018-07-14T02:18:52.306Z,0
2018-07-14T02:20:02.380Z,0
2018-07-14T02:21:12.460Z,0
2018-07-14T02:22:22.555Z,0
2018-07-14T02:23:32.674Z,0
2018-07-14T02:24:42.749Z,0
2018-07-14T02:25:52.822Z,0
2018-07-14T02:27:02.905Z,0
2018-07-14T02:28:12.965Z,0
2018-07-14T02:29:23.015Z,0
2018-07-14T02:30:32.835Z,0
2018-07-14T02:31:42.401Z,0
2018-07-14T02:32:52.495Z,0
2018-07-14T02:34:02.554Z,0
2018-07-14T02:35:12.659Z,0
2018-07-14T02:36:22.482Z,0
2018-07-14T02:37:32.027Z,0
2018-07-14T02:38:42.113Z,0
2018-07-14T02:39:51.914Z,0
2018-07-14T02:41:01.741Z,0
2018-07-14T02:42:11.847Z,0
2018-07-14T02:43:21.420Z,0
2018-07-14T02:44:31.227Z,0
2018-07-14T02:45:41.042Z,0
2018-07-14T02:46:51.113Z,0
2018-07-14T02:48:01.205Z,0
2018-07-14T02:49:11.281Z,0
2018-07-14T02:50:21.341Z,0
2018-07-14T02:51:31.406Z,0
2018-07-14T02:52:41.233Z,0
2018-07-14T02:53:51.316Z,0
2018-07-14T02:55:01.402Z,0
2018-07-14T02:56:11.502Z,0
2018-07-14T02:57:21.344Z,0
2018-07-14T02:58:31.171Z,0
2018-07-14T02:59:41.099Z,0
2018-07-14T03:00:50.702Z,0
2018-07-14T03:02:00.524Z,0
2018-07-14T03:03:10.352Z,0
2018-07-14T03:35:40.897Z,25
2018-07-14T03:36:51.426Z,30
2018-07-14T03:38:01.479Z,30
2018-07-14T03:39:11.548Z,30
2018-07-14T03:40:21.355Z,30
2018-07-14T03:41:31.145Z,35
2018-07-14T03:42:41.204Z,35
2018-07-14T03:43:51.255Z,35
2018-07-14T03:45:01.328Z,40
2018-07-14T03:46:11.394Z,40
2018-07-14T03:47:21.464Z,40
2018-07-14T03:48:31.543Z,40
2018-07-14T03:49:41.622Z,45
2018-07-14T03:50:51.694Z,45
2018-07-14T03:52:01.764Z,45
2018-07-14T03:53:11.899Z,50
2018-07-14T03:54:21.964Z,50
2018-07-14T03:55:31.782Z,50
2018-07-14T03:56:41.655Z,50
2018-07-14T03:57:51.725Z,55
2018-07-14T03:59:01.538Z,55
2018-07-14T04:00:11.605Z,55
2018-07-14T04:01:21.689Z,60
2018-07-14T04:02:31.746Z,60
2018-07-14T04:03:41.868Z,60
2018-07-14T04:04:51.976Z,65
2018-07-14T04:06:02.040Z,65
2018-07-14T04:07:12.122Z,65
2018-07-14T04:08:22.187Z,65
2018-07-14T04:09:32.251Z,65
2018-07-14T04:10:42.084Z,65
2018-07-14T04:11:52.281Z,70
2018-07-14T04:13:02.368Z,70
2018-07-14T04:14:12.240Z,70
2018-07-14T04:15:22.055Z,75
2018-07-14T04:16:31.944Z,75
2018-07-14T04:17:42.009Z,75
2018-07-14T04:18:51.812Z,80
2018-07-14T04:20:01.892Z,80
2018-07-14T04:21:11.970Z,80
2018-07-14T04:22:21.834Z,85
2018-07-14T04:23:31.904Z,85
2018-07-14T04:24:41.979Z,85
2018-07-14T04:25:52.065Z,90
2018-07-14T04:27:02.127Z,155
2018-07-14T04:28:11.683Z,350
2018-07-14T04:29:21.770Z,425
2018-07-14T04:30:31.858Z,420
2018-07-14T04:31:41.935Z,410
2018-07-14T04:32:51.747Z,420
2018-07-14T04:34:01.823Z,410
2018-07-14T04:35:11.889Z,415
2018-07-14T04:36:21.961Z,425
2018-07-14T04:37:32.035Z,445
2018-07-14T04:38:42.121Z,445
2018-07-14T04:39:51.937Z,430
2018-07-14T04:41:01.751Z,430
2018-07-14T04:42:11.587Z,460
2018-07-14T04:43:21.677Z,445
2018-07-14T04:44:31.484Z,430
2018-07-14T04:45:41.630Z,440
2018-07-14T04:46:51.706Z,430
2018-07-14T04:48:01.803Z,440
2018-07-14T04:49:11.885Z,440
2018-07-14T04:50:21.965Z,450
2018-07-14T04:51:31.774Z,430
2018-07-14T04:52:41.858Z,455
2018-07-14T04:53:51.940Z,445
2018-07-14T04:55:02.011Z,435
2018-07-14T04:56:11.840Z,430
2018-07-14T04:57:21.934Z,445
2018-07-14T04:58:31.751Z,465
2018-07-14T04:59:41.829Z,460
2018-07-14T05:00:51.907Z,455
2018-07-14T05:02:02.011Z,445
2018-07-14T05:03:11.840Z,470
2018-07-14T05:04:21.664Z,470
2018-07-14T05:05:31.744Z,465
2018-07-14T05:06:41.892Z,475
2018-07-14T05:07:51.712Z,460
2018-07-14T05:09:01.804Z,460
2018-07-14T05:10:11.881Z,475
2018-07-14T05:11:21.716Z,460
2018-07-14T05:12:31.804Z,450
2018-07-14T05:13:41.624Z,460
2018-07-14T05:14:51.428Z,465
2018-07-14T05:16:01.243Z,465
2018-07-14T05:17:11.072Z,470
2018-07-14T05:18:21.168Z,470
2018-07-14T05:19:30.983Z,470
2018-07-14T05:20:40.792Z,485
2018-07-14T05:21:50.889Z,470
2018-07-14T05:23:00.966Z,465
2018-07-14T05:24:10.763Z,455
2018-07-14T05:25:20.869Z,435
2018-07-14T05:26:30.931Z,445
2018-07-14T05:27:40.744Z,465
2018-07-14T05:28:51.039Z,465
2018-07-14T05:30:01.117Z,450
2018-07-14T05:31:11.196Z,445
2018-07-14T05:32:21.256Z,445
2018-07-14T05:33:31.080Z,445
2018-07-14T05:34:41.152Z,445
2018-07-14T05:35:50.978Z,445
2018-07-14T05:37:01.048Z,445
2018-07-14T05:38:11.131Z,435
2018-07-14T05:39:20.695Z,415
2018-07-14T05:40:30.494Z,410
2018-07-14T05:41:40.563Z,415
2018-07-14T05:42:50.378Z,405
2018-07-14T05:44:00.624Z,395
2018-07-14T05:45:10.783Z,390
2018-07-14T05:46:20.620Z,370
2018-07-14T05:47:30.687Z,355
2018-07-14T05:48:40.503Z,355
2018-07-14T05:49:50.620Z,355
2018-07-14T05:51:00.432Z,350
2018-07-14T05:52:10.806Z,355
2018-07-14T05:53:20.965Z,355
2018-07-14T05:54:31.034Z,355
2018-07-14T05:55:40.844Z,355
2018-07-14T05:56:50.920Z,355
2018-07-14T05:58:00.993Z,355
2018-07-14T05:59:11.075Z,355
2018-07-14T06:00:21.226Z,350
2018-07-14T06:01:31.303Z,350
2018-07-14T06:02:41.388Z,350
2018-07-14T06:03:51.464Z,350
2018-07-14T06:05:01.544Z,345
2018-07-14T06:06:11.645Z,345
2018-07-14T06:07:21.707Z,340
2018-07-14T06:08:31.788Z,335
2018-07-14T06:09:41.894Z,335
2018-07-14T06:10:51.736Z,340
2018-07-14T06:12:01.548Z,330
2018-07-14T06:13:11.369Z,330
2018-07-14T06:14:21.991Z,325
2018-07-14T06:15:32.065Z,330
2018-07-14T06:16:42.154Z,330
2018-07-14T06:17:52.231Z,330
2018-07-14T06:19:02.293Z,330
2018-07-14T06:20:12.403Z,330
2018-07-14T06:21:22.517Z,330
2018-07-14T06:22:32.610Z,325
2018-07-14T06:23:42.697Z,270
2018-07-14T06:24:52.555Z,200
2018-07-14T06:26:02.627Z,195
2018-07-14T06:27:12.172Z,200
2018-07-14T06:28:22.271Z,210
2018-07-14T06:29:32.344Z,255
2018-07-14T06:30:42.439Z,285
2018-07-14T06:31:52.542Z,285
2018-07-14T06:33:02.378Z,280
2018-07-14T06:34:12.218Z,280
2018-07-14T06:35:22.287Z,275
2018-07-14T06:36:32.365Z,275
2018-07-14T06:37:42.457Z,270
2018-07-14T06:38:52.941Z,270
2018-07-14T06:40:03.023Z,270
2018-07-14T06:41:13.131Z,265
2018-07-14T06:42:23.224Z,260
2018-07-14T06:43:33.040Z,255
2018-07-14T06:44:43.114Z,255
2018-07-14T06:45:52.942Z,255
2018-07-14T06:47:03.027Z,250
2018-07-14T06:48:13.097Z,250
2018-07-14T06:49:22.921Z,245
2018-07-14T06:50:32.986Z,240
2018-07-14T06:51:43.058Z,240
2018-07-14T06:52:53.218Z,240
2018-07-14T06:54:03.355Z,240
2018-07-14T06:55:12.915Z,235
2018-07-14T06:56:22.973Z,235
2018-07-14T06:57:32.783Z,230
2018-07-14T06:58:42.857Z,225
2018-07-14T06:59:52.935Z,230
2018-07-14T07:01:03.026Z,225
2018-07-14T07:02:13.096Z,220
2018-07-14T07:03:23.335Z,220
2018-07-14T07:04:33.205Z,215
2018-07-14T07:05:43.033Z,215
2018-07-14T07:06:52.874Z,210
2018-07-14T07:08:02.965Z,210
2018-07-14T07:09:12.513Z,205
2018-07-14T07:10:22.317Z,205
2018-07-14T07:11:32.392Z,200
2018-07-14T07:12:42.484Z,200
2018-07-14T07:13:52.484Z,195
2018-07-14T07:15:02.649Z,190
2018-07-14T07:16:12.727Z,185
2018-07-14T07:17:22.789Z,190
2018-07-14T07:18:32.862Z,185
2018-07-14T07:19:42.953Z,185
2018-07-14T07:20:53.041Z,185
2018-07-14T07:22:03.107Z,185
2018-07-14T07:23:13.189Z,185
2018-07-14T07:24:23.263Z,185
2018-07-14T07:25:33.096Z,185
2018-07-14T07:26:42.995Z,185
2018-07-14T07:27:52.802Z,185
2018-07-14T07:29:02.972Z,185
2018-07-14T07:30:12.775Z,185
2018-07-14T07:31:22.866Z,190
2018-07-14T07:32:32.944Z,190
2018-07-14T07:33:43.019Z,185
2018-07-14T07:34:53.428Z,185
2018-07-14T07:36:03.508Z,190
2018-07-14T07:37:13.595Z,190
2018-07-14T07:38:23.725Z,190
2018-07-14T07:39:33.816Z,190
2018-07-14T07:40:43.624Z,190
2018-07-14T07:41:53.452Z,190
2018-07-14T07:43:03.524Z,190
2018-07-14T07:44:13.595Z,190
2018-07-14T07:45:23.687Z,190
2018-07-14T07:46:33.771Z,190
2018-07-14T07:47:43.858Z,190
2018-07-14T07:48:53.664Z,190
2018-07-14T07:50:03.215Z,190
2018-07-14T07:51:13.294Z,190
2018-07-14T07:52:22.586Z,190
2018-07-14T07:53:32.651Z,190
2018-07-14T07:54:42.749Z,190
2018-07-14T07:55:52.591Z,190
2018-07-14T07:57:02.658Z,190
2018-07-14T07:58:12.485Z,190
2018-07-14T07:59:22.560Z,190
2018-07-14T08:00:32.673Z,190
2018-07-14T08:01:42.549Z,190
2018-07-14T08:02:52.632Z,190
2018-07-14T08:04:02.459Z,190
2018-07-14T08:05:12.527Z,195
2018-07-14T08:06:22.597Z,190
2018-07-14T08:07:32.703Z,190
2018-07-14T08:08:43.171Z,190
2018-07-14T08:09:53.349Z,190
2018-07-14T08:11:03.480Z,190
2018-07-14T08:12:13.310Z,190
2018-07-14T08:13:23.454Z,195
2018-07-14T08:14:33.273Z,190
2018-07-14T08:15:43.387Z,190
2018-07-14T08:16:53.212Z,190
2018-07-14T08:18:03.290Z,190
2018-07-14T08:19:13.380Z,190
2018-07-14T08:20:23.461Z,190
2018-07-14T08:21:33.555Z,190
2018-07-14T08:22:43.601Z,190
2018-07-14T08:23:53.702Z,190
2018-07-14T08:25:03.309Z,190
2018-07-14T08:26:13.445Z,190
2018-07-14T08:27:23.285Z,190
2018-07-14T08:28:33.365Z,195
2018-07-14T08:29:43.446Z,190
2018-07-14T08:30:53.534Z,190
2018-07-14T08:32:03.081Z,190
2018-07-14T08:33:12.881Z,190
2018-07-14T08:34:23.014Z,195
2018-07-14T08:35:32.836Z,195
2018-07-14T08:36:42.896Z,195
2018-07-14T08:37:52.709Z,195
2018-07-14T08:39:02.522Z,195
2018-07-14T08:40:12.338Z,200
2018-07-14T08:41:21.883Z,200
2018-07-14T08:42:31.715Z,195
2018-07-14T08:43:41.903Z,195
2018-07-14T08:44:51.455Z,195
2018-07-14T08:46:01.546Z,195
2018-07-14T08:47:11.633Z,195
2018-07-14T08:48:21.699Z,195
2018-07-14T08:49:31.510Z,195
2018-07-14T08:50:42.055Z,195
2018-07-14T08:51:51.875Z,195
2018-07-14T08:53:02.013Z,195
2018-07-14T08:54:12.082Z,195
2018-07-14T08:55:22.186Z,195
2018-07-14T08:56:31.992Z,195
2018-07-14T08:57:41.824Z,195
2018-07-14T08:58:51.630Z,195
2018-07-14T09:00:01.717Z,195
2018-07-14T09:01:11.803Z,195
2018-07-14T09:02:21.619Z,195
2018-07-14T09:03:31.554Z,195
2018-07-14T09:04:41.375Z,195
2018-07-14T09:05:51.255Z,195
2018-07-14T09:07:01.332Z,195
2018-07-14T09:08:11.137Z,195
2018-07-14T09:09:20.685Z,195
2018-07-14T09:10:30.836Z,195
2018-07-14T09:11:40.643Z,195
2018-07-14T09:12:50.743Z,195
2018-07-14T09:14:00.548Z,195
2018-07-14T09:15:10.628Z,195
2018-07-14T09:16:20.494Z,195
2018-07-14T09:17:30.569Z,195
2018-07-14T09:18:40.676Z,195
2018-07-14T09:19:50.740Z,195
2018-07-14T09:21:00.537Z,195
2018-07-14T09:22:10.620Z,195
2018-07-14T09:23:20.706Z,195
2018-07-14T09:24:30.789Z,195
2018-07-14T09:25:40.880Z,195
2018-07-14T09:26:50.952Z,195
2018-07-14T09:28:01.037Z,195
2018-07-14T09:29:11.119Z,200
2018-07-14T09:30:21.199Z,200
2018-07-14T09:31:31.096Z,195
2018-07-14T09:32:41.504Z,200
2018-07-14T09:33:51.673Z,195
2018-07-14T09:35:01.578Z,200
2018-07-14T09:36:11.677Z,195
2018-07-14T09:37:21.766Z,195
2018-07-14T09:38:31.859Z,195
2018-07-14T09:39:41.671Z,200
2018-07-14T09:40:51.541Z,200
2018-07-14T09:42:01.362Z,200
2018-07-14T09:43:11.438Z,200
2018-07-14T09:44:21.516Z,195
2018-07-14T09:45:31.351Z,195
2018-07-14T09:46:41.451Z,200
2018-07-14T09:47:52.090Z,200
2018-07-14T09:49:01.859Z,200
2018-07-14T09:50:11.933Z,200
2018-07-14T09:51:22.011Z,200
2018-07-14T09:52:32.147Z,200
2018-07-14T09:53:42.228Z,200
2018-07-14T09:54:52.293Z,205
2018-07-14T09:56:02.387Z,205
2018-07-14T09:57:12.531Z,205
2018-07-14T09:58:22.677Z,205
2018-07-14T09:59:32.764Z,205
2018-07-14T10:00:42.852Z,205
2018-07-14T10:01:52.668Z,205
2018-07-14T10:03:02.741Z,205
2018-07-14T10:04:12.603Z,205
2018-07-14T10:05:22.682Z,205
2018-07-14T10:06:32.790Z,205
2018-07-14T10:07:42.876Z,205
2018-07-14T10:08:52.704Z,205
2018-07-14T10:10:02.711Z,210
2018-07-14T10:11:12.269Z,210
2018-07-14T10:12:21.830Z,210
2018-07-14T10:13:31.925Z,205
2018-07-14T10:14:41.744Z,210
2018-07-14T10:15:51.302Z,215
2018-07-14T10:17:01.417Z,215
2018-07-14T10:18:11.258Z,215
2018-07-14T10:19:21.361Z,215
2018-07-14T10:20:31.453Z,215
2018-07-14T10:21:41.539Z,220
2018-07-14T10:22:51.626Z,220
2018-07-14T10:24:01.722Z,220
2018-07-14T10:25:11.971Z,230
2018-07-14T10:26:22.151Z,230
2018-07-14T10:27:32.236Z,240
2018-07-14T10:28:42.064Z,250
2018-07-14T10:29:51.895Z,255
2018-07-14T10:31:01.992Z,265
2018-07-14T10:32:11.859Z,270
2018-07-14T10:33:21.960Z,270
2018-07-14T10:34:32.031Z,270
2018-07-14T10:35:42.102Z,265
2018-07-14T10:36:51.924Z,260
2018-07-14T10:38:02.064Z,250
2018-07-14T10:39:12.152Z,250
2018-07-14T10:40:22.258Z,250
2018-07-14T10:41:32.096Z,250
2018-07-14T10:42:42.538Z,250
2018-07-14T10:43:52.634Z,255
2018-07-14T10:45:02.519Z,255
2018-07-14T10:46:12.619Z,260
2018-07-14T10:47:22.697Z,260
2018-07-14T10:48:32.764Z,260
2018-07-14T10:49:42.844Z,265
2018-07-14T10:50:52.720Z,275
2018-07-14T10:52:02.559Z,280
2018-07-14T10:53:12.650Z,290
2018-07-14T10:54:22.771Z,300
2018-07-14T10:55:32.602Z,310
2018-07-14T10:56:42.695Z,320
2018-07-14T10:57:52.771Z,325
2018-07-14T10:59:02.847Z,320
2018-07-14T11:00:12.935Z,315
2018-07-14T11:01:22.768Z,305
2018-07-14T11:02:32.843Z,290
2018-07-14T11:03:42.662Z,280
2018-07-14T11:04:52.753Z,275
2018-07-14T11:06:02.589Z,265
2018-07-14T11:07:12.662Z,255
2018-07-14T11:08:22.772Z,255
2018-07-14T11:09:32.588Z,250
2018-07-14T11:10:42.406Z,250
2018-07-14T11:11:52.227Z,250
2018-07-14T11:13:02.054Z,250
2018-07-14T11:14:11.912Z,245
2018-07-14T11:15:21.493Z,245
2018-07-14T11:16:31.325Z,250
2018-07-14T11:17:41.448Z,255
2018-07-14T11:18:51.574Z,255
2018-07-14T11:20:01.389Z,265
2018-07-14T11:21:11.198Z,260
2018-07-14T11:22:21.294Z,270
2018-07-14T11:23:31.116Z,285
2018-07-14T11:24:41.198Z,290
2018-07-14T11:25:51.024Z,300
2018-07-14T11:27:01.125Z,250
2018-07-14T11:28:10.977Z,295
2018-07-14T11:29:21.064Z,280
2018-07-14T11:30:31.311Z,200
2018-07-14T11:31:41.402Z,195
2018-07-14T11:32:51.488Z,195
2018-07-14T11:34:01.582Z,205
2018-07-14T11:35:11.687Z,205
2018-07-14T11:36:21.776Z,190
2018-07-14T11:37:31.924Z,180
2018-07-14T11:38:42.034Z,170
2018-07-14T11:39:51.867Z,170
2018-07-14T11:41:01.746Z,165
2018-07-14T11:42:11.843Z,165
2018-07-14T11:43:21.736Z,175
2018-07-14T11:44:31.833Z,180
2018-07-14T11:45:41.924Z,205
2018-07-14T11:46:52.057Z,215
2018-07-14T11:48:02.677Z,200
2018-07-14T11:49:12.790Z,200
2018-07-14T11:50:22.923Z,200
2018-07-14T11:51:32.999Z,195
2018-07-14T11:52:43.098Z,190
2018-07-14T11:53:53.188Z,190
2018-07-14T11:55:03.351Z,185
2018-07-14T11:56:13.452Z,185
2018-07-14T11:57:23.271Z,185
2018-07-14T11:58:33.088Z,190
2018-07-14T11:59:43.187Z,205
2018-07-14T12:00:53.336Z,245
2018-07-14T12:02:03.679Z,230
2018-07-14T12:03:13.805Z,220
2018-07-14T12:04:23.636Z,210
2018-07-14T12:05:33.756Z,210
2018-07-14T12:06:43.892Z,215
2018-07-14T12:07:54.047Z,230
2018-07-14T12:09:04.144Z,245
2018-07-14T12:10:14.232Z,220
2018-07-14T12:11:24.063Z,210
2018-07-14T12:12:34.136Z,210
2018-07-14T12:13:44.089Z,205
2018-07-14T12:14:53.930Z,205
2018-07-14T12:16:03.790Z,215
2018-07-14T12:17:13.875Z,220
2018-07-14T12:18:24.009Z,225
2018-07-14T12:19:33.829Z,285
2018-07-14T12:20:43.656Z,265
2018-07-14T12:21:53.761Z,305
2018-07-14T12:23:03.845Z,300
2018-07-14T12:24:13.932Z,270
2018-07-14T12:25:24.035Z,200
2018-07-14T12:26:34.148Z,205
2018-07-14T12:27:44.306Z,285
2018-07-14T12:28:54.477Z,295
2018-07-14T12:30:04.567Z,215
2018-07-14T12:31:14.642Z,290
2018-07-14T12:32:24.763Z,295
2018-07-14T12:33:34.873Z,295
2018-07-14T12:34:44.701Z,295
2018-07-14T12:35:54.525Z,300
2018-07-14T12:37:04.636Z,305
2018-07-14T12:38:14.476Z,305
2018-07-14T12:39:24.313Z,300
2018-07-14T12:40:34.427Z,300
2018-07-14T12:41:44.256Z,250
2018-07-14T12:42:54.333Z,310
2018-07-14T12:44:04.154Z,245
2018-07-14T12:45:14.232Z,310
2018-07-14T12:46:24.069Z,315
2018-07-14T12:47:34.166Z,310
2018-07-14T12:48:43.997Z,310
2018-07-14T12:49:53.306Z,310
2018-07-14T12:51:03.147Z,310
2018-07-14T12:52:12.985Z,315
2018-07-14T12:53:23.070Z,315
2018-07-14T12:54:33.182Z,315
2018-07-14T12:55:43.279Z,315
2018-07-14T12:56:53.371Z,320
2018-07-14T12:58:03.452Z,325
2018-07-14T12:59:13.691Z,335
2018-07-14T13:00:23.897Z,335
2018-07-14T13:01:33.729Z,345
2018-07-14T13:02:43.842Z,345
2018-07-14T13:03:53.939Z,345
2018-07-14T13:05:03.789Z,330
2018-07-14T13:06:13.625Z,345
2018-07-14T13:07:23.722Z,345
2018-07-14T13:08:33.533Z,360
2018-07-14T13:09:43.630Z,365
2018-07-14T13:10:53.489Z,390
2018-07-14T13:12:03.319Z,390
2018-07-14T13:13:13.157Z,390
2018-07-14T13:14:23.254Z,385
2018-07-14T13:15:33.073Z,325
2018-07-14T13:16:43.165Z,375
2018-07-14T13:17:53.261Z,365
2018-07-14T13:19:03.363Z,370
2018-07-14T13:20:13.459Z,375
2018-07-14T13:21:23.565Z,370
2018-07-14T13:22:33.715Z,310
2018-07-14T13:23:43.788Z,315
2018-07-14T13:24:53.891Z,315
2018-07-14T13:26:03.726Z,320
2018-07-14T13:27:13.824Z,320
2018-07-14T13:28:24.012Z,325
2018-07-14T13:29:34.116Z,325
2018-07-14T13:30:44.209Z,330
2018-07-14T13:31:54.028Z,335
2018-07-14T13:33:04.111Z,325
2018-07-14T13:34:14.190Z,325
2018-07-14T13:35:24.012Z,385
2018-07-14T13:36:34.320Z,300
2018-07-14T13:37:44.178Z,290
2018-07-14T13:39:01.688Z,280
2018-07-14T13:40:11.318Z,330
2018-07-14T13:41:21.399Z,265
2018-07-14T13:42:31.491Z,315
2018-07-14T13:43:41.317Z,295
2018-07-14T13:44:51.435Z,235
2018-07-14T13:46:01.258Z,230
2018-07-14T13:47:11.353Z,300
2018-07-14T13:48:21.432Z,295
2018-07-14T13:49:31.520Z,295
2018-07-14T13:50:41.330Z,290
2018-07-14T13:51:51.208Z,290
2018-07-14T13:53:01.040Z,290
2018-07-14T13:54:11.129Z,290
2018-07-14T13:55:21.211Z,285
2018-07-14T13:56:31.314Z,280
2018-07-14T13:57:41.414Z,275
2018-07-14T13:58:51.499Z,195
2018-07-14T14:00:01.572Z,180
2018-07-14T14:01:11.392Z,170
2018-07-14T14:02:21.486Z,160
2018-07-14T14:03:31.565Z,150
2018-07-14T14:04:41.396Z,145
2018-07-14T14:05:51.473Z,140
2018-07-14T14:07:01.562Z,155
2018-07-14T14:08:11.385Z,125
2018-07-14T14:09:21.464Z,120
2018-07-14T14:10:31.555Z,110
2018-07-14T14:11:41.651Z,105
2018-07-14T14:12:51.734Z,100
2018-07-14T14:14:01.556Z,95
2018-07-14T14:15:11.645Z,90
2018-07-14T14:16:21.724Z,85
2018-07-14T14:17:31.795Z,80
2018-07-14T14:18:41.882Z,80
2018-07-14T14:19:52.098Z,75
2018-07-14T14:21:02.231Z,75
2018-07-14T14:22:12.043Z,75
2018-07-14T14:23:22.132Z,70
2018-07-14T14:24:32.218Z,65
2018-07-14T14:25:42.314Z,60
2018-07-14T14:26:52.420Z,55
2018-07-14T14:28:02.504Z,50
2018-07-14T14:29:12.330Z,45
2018-07-14T14:30:22.169Z,45
2018-07-14T14:31:32.326Z,45
2018-07-14T14:32:42.412Z,45
2018-07-14T14:33:52.515Z,45
2018-07-14T14:35:02.647Z,50
2018-07-14T14:36:12.769Z,60
2018-07-14T14:37:22.849Z,65
2018-07-14T14:38:32.669Z,75
2018-07-14T14:39:43.015Z,80
2018-07-14T14:40:53.093Z,80
2018-07-14T14:42:02.686Z,85
2018-07-14T14:43:12.239Z,90
2018-07-14T14:44:22.335Z,95
2018-07-14T14:45:32.426Z,95
2018-07-14T14:46:42.497Z,100
2018-07-14T14:47:52.298Z,105
2018-07-14T14:49:02.382Z,115
2018-07-14T14:50:12.540Z,120
2018-07-14T14:51:22.647Z,140
2018-07-14T14:52:32.715Z,160
2018-07-14T14:53:42.786Z,190
2018-07-14T14:54:52.884Z,195
2018-07-14T14:56:03.157Z,215
2018-07-14T14:57:13.141Z,230
2018-07-14T14:58:23.292Z,275
2018-07-14T14:59:33.398Z,280
2018-07-14T15:00:43.609Z,280
2018-07-14T15:01:53.693Z,270
2018-07-14T15:03:03.788Z,260
2018-07-14T15:04:13.874Z,240
2018-07-14T15:05:23.938Z,185
2018-07-14T15:06:34.029Z,220
2018-07-14T15:07:44.171Z,190
2018-07-14T15:08:53.725Z,190
2018-07-14T15:10:03.570Z,190
2018-07-14T15:11:13.398Z,180
2018-07-14T15:12:23.497Z,185
2018-07-14T15:13:33.638Z,180
2018-07-14T15:14:43.462Z,235
2018-07-14T15:15:53.349Z,235
2018-07-14T15:17:03.439Z,235
2018-07-14T15:18:13.513Z,225
2018-07-14T15:19:23.651Z,215
2018-07-14T15:20:33.732Z,210
2018-07-14T15:21:43.562Z,205
2018-07-14T15:22:53.651Z,205
2018-07-14T15:24:03.756Z,190
2018-07-14T15:25:13.867Z,190
2018-07-14T15:26:23.998Z,180
2018-07-14T15:27:34.124Z,175
2018-07-14T15:28:43.969Z,140
2018-07-14T15:29:54.041Z,170
2018-07-14T15:31:03.901Z,170
2018-07-14T15:32:14.139Z,170
2018-07-14T15:33:25.178Z,170
2018-07-14T15:34:35.200Z,165
2018-07-14T15:35:45.017Z,165
2018-07-14T15:36:55.166Z,165
2018-07-14T15:38:05.251Z,160
2018-07-14T15:39:15.318Z,160
2018-07-14T15:40:25.176Z,160
2018-07-14T15:41:35.197Z,160
2018-07-14T15:42:45.390Z,165
2018-07-14T15:43:55.468Z,155
2018-07-14T15:45:05.787Z,155
2018-07-14T15:46:15.608Z,155
2018-07-14T15:47:25.694Z,160
2018-07-14T15:48:35.790Z,155
2018-07-14T15:49:45.861Z,150
2018-07-14T15:50:55.957Z,150
2018-07-14T15:52:05.772Z,150
2018-07-14T15:53:15.856Z,150
2018-07-14T15:54:25.988Z,150
2018-07-14T15:55:36.062Z,150
2018-07-14T15:56:46.161Z,150
2018-07-14T15:57:55.978Z,150
2018-07-14T15:59:06.066Z,150
2018-07-14T16:00:16.617Z,150
2018-07-14T16:01:26.719Z,145
2018-07-14T16:02:36.786Z,145
2018-07-14T16:03:46.874Z,145
2018-07-14T16:04:56.956Z,145
2018-07-14T16:06:07.052Z,140
2018-07-14T16:07:17.141Z,140
2018-07-14T16:08:26.693Z,140
2018-07-14T16:09:36.512Z,140
2018-07-14T16:10:46.601Z,140
2018-07-14T16:11:56.920Z,135
2018-07-14T16:13:07.044Z,135
2018-07-14T16:14:16.887Z,135
2018-07-14T16:15:26.698Z,135
2018-07-14T16:16:36.776Z,130
2018-07-14T16:17:46.866Z,130
2018-07-14T16:18:57.071Z,130
2018-07-14T16:20:07.173Z,130
2018-07-14T16:21:17.270Z,130
2018-07-14T16:22:27.086Z,125
2018-07-14T16:23:37.227Z,125
2018-07-14T16:24:47.306Z,125
2018-07-14T16:25:57.390Z,125
2018-07-14T16:27:07.480Z,125
2018-07-14T16:28:17.617Z,125
2018-07-14T16:29:27.760Z,125
2018-07-14T16:30:37.843Z,120
2018-07-14T16:31:47.689Z,120
2018-07-14T16:32:57.762Z,120
2018-07-14T16:34:07.838Z,120
2018-07-14T16:35:18.116Z,120
2018-07-14T16:36:28.268Z,115
2018-07-14T16:37:38.354Z,115
2018-07-14T16:38:48.187Z,115
2018-07-14T16:39:58.272Z,115
2018-07-14T16:41:08.122Z,115
2018-07-14T16:42:18.219Z,115
2018-07-14T16:43:27.809Z,110
2018-07-14T16:44:37.623Z,110
2018-07-14T16:45:47.722Z,110
2018-07-14T16:46:57.867Z,110
2018-07-14T16:48:07.950Z,110
2018-07-14T16:49:18.045Z,110
2018-07-14T16:50:28.276Z,110